sensor_id;sensor_type;location;lat;lon;timestamp;pressure;altitude;pressure_sealevel;temperature;humidity
63808;BME280;49961;43.970;22.868;2023-11-21T00:00:55;101193.88;;;9.71;100.00
63808;BME280;49961;43.970;22.868;2023-11-21T00:01:55;101193.06;;;9.71;100.00
63808;BME280;49961;43.970;22.868;2023-11-21T00:02:57;101189.09;;;9.72;100.00
63808;BME280;49961;43.970;22.868;2023-11-21T00:03:57;101194.28;;;9.70;100.00
63808;BME280;49961;43.970;22.868;2023-11-21T00:04:58;101195.06;;;9.70;100.00
63808;BME280;49961;43.970;22.868;2023-11-21T00:05:58;101196.25;;;9.69;100.00
63808;BME280;49961;43.970;22.868;2023-11-21T00:06:59;101189.94;;;9.69;100.00
63808;BME280;49961;43.970;22.868;2023-11-21T00:07:59;101196.28;;;9.66;100.00
63808;BME280;49961;43.970;22.868;2023-11-21T00:09:00;101104.59;;;8.93;100.00
63808;BME280;49961;43.970;22.868;2023-11-21T00:10:00;101187.81;;;9.46;100.00
63808;BME280;49961;43.970;22.868;2023-11-21T00:11:01;101190.63;;;9.43;100.00
63808;BME280;49961;43.970;22.868;2023-11-21T00:12:01;101194.59;;;9.38;100.00
63808;BME280;49961;43.970;22.868;2023-11-21T00:13:02;101191.88;;;9.35;100.00
63808;BME280;49961;43.970;22.868;2023-11-21T00:14:03;101192.63;;;9.39;100.00
63808;BME280;49961;43.970;22.868;2023-11-21T00:15:04;101188.66;;;9.40;100.00
63808;BME280;49961;43.970;22.868;2023-11-21T00:16:11;101116.06;;;8.92;100.00
63808;BME280;49961;43.970;22.868;2023-11-21T00:17:11;101189.50;;;9.37;100.00
63808;BME280;49961;43.970;22.868;2023-11-21T00:18:12;101187.91;;;9.36;100.00
63808;BME280;49961;43.970;22.868;2023-11-21T00:19:12;101191.84;;;9.38;100.00
63808;BME280;49961;43.970;22.868;2023-11-21T00:20:13;101195.41;;;9.39;100.00
63808;BME280;49961;43.970;22.868;2023-11-21T00:21:13;101196.56;;;9.41;100.00
63808;BME280;49961;43.970;22.868;2023-11-21T00:22:14;101193.00;;;9.41;100.00
63808;BME280;49961;43.970;22.868;2023-11-21T00:23:16;101193.78;;;9.41;100.00
63808;BME280;49961;43.970;22.868;2023-11-21T00:24:16;101190.72;;;9.32;100.00
63808;BME280;49961;43.970;22.868;2023-11-21T00:25:17;101181.66;;;9.32;100.00
63808;BME280;49961;43.970;22.868;2023-11-21T00:26:18;101202.84;;;9.42;100.00
63808;BME280;49961;43.970;22.868;2023-11-21T00:27:18;101198.53;;;9.41;100.00
63808;BME280;49961;43.970;22.868;2023-11-21T00:28:19;101196.16;;;9.39;100.00
63808;BME280;49961;43.970;22.868;2023-11-21T00:29:19;101157.34;;;9.13;100.00
63808;BME280;49961;43.970;22.868;2023-11-21T00:30:20;101191.44;;;9.40;100.00
63808;BME280;49961;43.970;22.868;2023-11-21T00:31:22;101194.22;;;9.36;100.00
63808;BME280;49961;43.970;22.868;2023-11-21T00:32:23;101190.28;;;9.37;100.00
63808;BME280;49961;43.970;22.868;2023-11-21T00:33:23;101186.75;;;9.37;100.00
63808;BME280;49961;43.970;22.868;2023-11-21T00:34:25;101184.38;;;9.35;100.00
63808;BME280;49961;43.970;22.868;2023-11-21T00:35:25;101189.09;;;9.35;100.00
63808;BME280;49961;43.970;22.868;2023-11-21T00:36:26;101174.56;;;9.27;100.00
63808;BME280;49961;43.970;22.868;2023-11-21T00:37:28;101183.56;;;9.35;100.00
63808;BME280;49961;43.970;22.868;2023-11-21T00:38:28;101182.38;;;9.36;100.00
63808;BME280;49961;43.970;22.868;2023-11-21T00:39:28;101174.16;;;9.29;100.00
63808;BME280;49961;43.970;22.868;2023-11-21T00:40:29;101183.63;;;9.31;100.00
63808;BME280;49961;43.970;22.868;2023-11-21T00:41:29;101175.41;;;9.24;100.00
63808;BME280;49961;43.970;22.868;2023-11-21T00:42:30;101184.41;;;9.32;100.00
63808;BME280;49961;43.970;22.868;2023-11-21T00:43:32;101124.28;;;8.99;100.00
63808;BME280;49961;43.970;22.868;2023-11-21T00:44:34;101189.91;;;9.35;100.00
63808;BME280;49961;43.970;22.868;2023-11-21T00:45:34;101196.25;;;9.32;100.00
63808;BME280;49961;43.970;22.868;2023-11-21T00:46:36;101189.91;;;9.35;100.00
63808;BME280;49961;43.970;22.868;2023-11-21T00:47:37;101185.13;;;9.36;100.00
63808;BME280;49961;43.970;22.868;2023-11-21T00:48:38;101189.91;;;9.35;100.00
63808;BME280;49961;43.970;22.868;2023-11-21T00:49:39;101178.44;;;9.33;100.00
63808;BME280;49961;43.970;22.868;2023-11-21T00:50:39;101174.53;;;9.31;100.00
63808;BME280;49961;43.970;22.868;2023-11-21T00:51:40;101172.97;;;9.30;100.00
63808;BME280;49961;43.970;22.868;2023-11-21T00:52:41;101183.19;;;9.36;100.00
63808;BME280;49961;43.970;22.868;2023-11-21T00:53:41;101176.84;;;9.36;100.00
63808;BME280;49961;43.970;22.868;2023-11-21T00:54:42;101173.28;;;9.39;100.00
63808;BME280;49961;43.970;22.868;2023-11-21T00:55:42;101143.13;;;9.11;100.00
63808;BME280;49961;43.970;22.868;2023-11-21T00:56:43;101178.81;;;9.39;100.00
63808;BME280;49961;43.970;22.868;2023-11-21T00:57:44;101180.41;;;9.36;100.00
63808;BME280;49961;43.970;22.868;2023-11-21T00:58:44;101077.19;;;8.69;100.00
63808;BME280;49961;43.970;22.868;2023-11-21T00:59:49;101180.00;;;9.38;100.00
63808;BME280;49961;43.970;22.868;2023-11-21T01:00:50;101180.41;;;9.36;100.00
63808;BME280;49961;43.970;22.868;2023-11-21T01:01:50;101175.28;;;9.35;100.00
63808;BME280;49961;43.970;22.868;2023-11-21T01:02:51;101175.28;;;9.35;100.00
63808;BME280;49961;43.970;22.868;2023-11-21T01:03:52;101179.66;;;9.32;100.00
63808;BME280;49961;43.970;22.868;2023-11-21T01:04:52;101175.69;;;9.33;100.00
63808;BME280;49961;43.970;22.868;2023-11-21T01:05:53;101163.91;;;9.26;100.00
63808;BME280;49961;43.970;22.868;2023-11-21T01:06:54;101086.59;;;8.78;100.00
63808;BME280;49961;43.970;22.868;2023-11-21T01:07:54;101178.75;;;9.42;100.00
63808;BME280;49961;43.970;22.868;2023-11-21T01:08:55;101177.19;;;9.41;100.00
63808;BME280;49961;43.970;22.868;2023-11-21T01:09:55;101188.25;;;9.41;100.00
63808;BME280;49961;43.970;22.868;2023-11-21T01:10:56;101183.13;;;9.40;100.00
63808;BME280;49961;43.970;22.868;2023-11-21T01:11:57;101184.75;;;9.37;100.00
63808;BME280;49961;43.970;22.868;2023-11-21T01:12:57;101177.22;;;9.38;100.00
63808;BME280;49961;43.970;22.868;2023-11-21T01:13:58;101175.75;;;9.26;100.00
63808;BME280;49961;43.970;22.868;2023-11-21T01:15:00;101180.38;;;9.40;100.00
63808;BME280;49961;43.970;22.868;2023-11-21T01:16:00;101177.59;;;9.40;100.00
63808;BME280;49961;43.970;22.868;2023-11-21T01:17:01;101176.81;;;9.39;100.00
63808;BME280;49961;43.970;22.868;2023-11-21T01:18:02;101155.56;;;9.33;100.00
63808;BME280;49961;43.970;22.868;2023-11-21T01:19:03;101177.16;;;9.45;100.00
63808;BME280;49961;43.970;22.868;2023-11-21T01:20:05;101140.63;;;9.23;100.00
63808;BME280;49961;43.970;22.868;2023-11-21T01:21:11;101170.09;;;9.40;100.00
63808;BME280;49961;43.970;22.868;2023-11-21T01:22:12;101172.03;;;9.43;100.00
63808;BME280;49961;43.970;22.868;2023-11-21T01:23:13;101139.91;;;9.19;100.00
63808;BME280;49961;43.970;22.868;2023-11-21T01:24:14;101169.66;;;9.45;100.00
63808;BME280;49961;43.970;22.868;2023-11-21T01:25:14;101164.94;;;9.42;100.00
63808;BME280;49961;43.970;22.868;2023-11-21T01:26:16;101160.91;;;9.47;100.00
63808;BME280;49961;43.970;22.868;2023-11-21T01:27:16;101162.50;;;9.48;100.00
63808;BME280;49961;43.970;22.868;2023-11-21T01:28:17;101166.44;;;9.50;100.00
63808;BME280;49961;43.970;22.868;2023-11-21T01:29:17;101162.81;;;9.53;100.00
63808;BME280;49961;43.970;22.868;2023-11-21T01:30:18;101156.13;;;9.51;100.00
63808;BME280;49961;43.970;22.868;2023-11-21T01:31:18;101160.84;;;9.54;100.00
63808;BME280;49961;43.970;22.868;2023-11-21T01:32:20;101165.53;;;9.57;100.00
63808;BME280;49961;43.970;22.868;2023-11-21T01:33:21;101165.50;;;9.64;100.00
63808;BME280;49961;43.970;22.868;2023-11-21T01:34:21;101128.22;;;9.38;100.00
63808;BME280;49961;43.970;22.868;2023-11-21T01:35:22;101042.69;;;8.84;100.00
63808;BME280;49961;43.970;22.868;2023-11-21T01:36:22;101161.88;;;9.67;100.00
63808;BME280;49961;43.970;22.868;2023-11-21T01:37:23;101169.00;;;9.68;100.00
63808;BME280;49961;43.970;22.868;2023-11-21T01:38:24;101161.50;;;9.65;100.00
63808;BME280;49961;43.970;22.868;2023-11-21T01:39:25;101176.16;;;9.65;100.00
63808;BME280;49961;43.970;22.868;2023-11-21T01:40:26;101162.72;;;9.64;100.00
63808;BME280;49961;43.970;22.868;2023-11-21T01:41:27;101100.72;;;9.24;100.00
63808;BME280;49961;43.970;22.868;2023-11-21T01:42:28;101164.25;;;9.68;100.00
63808;BME280;49961;43.970;22.868;2023-11-21T01:43:30;101153.16;;;9.68;100.00
63808;BME280;49961;43.970;22.868;2023-11-21T01:44:31;101159.94;;;9.64;100.00
63808;BME280;49961;43.970;22.868;2023-11-21T01:45:32;101155.63;;;9.63;100.00
63808;BME280;49961;43.970;22.868;2023-11-21T01:46:36;101157.19;;;9.64;100.00
63808;BME280;49961;43.970;22.868;2023-11-21T01:47:38;101095.66;;;9.19;100.00
63808;BME280;49961;43.970;22.868;2023-11-21T01:48:40;101153.22;;;9.65;100.00
63808;BME280;49961;43.970;22.868;2023-11-21T01:49:40;101143.41;;;9.57;100.00
63808;BME280;49961;43.970;22.868;2023-11-21T01:50:43;101152.84;;;9.63;100.00
63808;BME280;49961;43.970;22.868;2023-11-21T01:51:47;101156.03;;;9.61;100.00
63808;BME280;49961;43.970;22.868;2023-11-21T01:52:49;101136.38;;;9.52;100.00
63808;BME280;49961;43.970;22.868;2023-11-21T01:53:50;101153.25;;;9.61;100.00
63808;BME280;49961;43.970;22.868;2023-11-21T01:54:50;101154.41;;;9.64;100.00
63808;BME280;49961;43.970;22.868;2023-11-21T01:55:53;101154.38;;;9.67;100.00
63808;BME280;49961;43.970;22.868;2023-11-21T01:56:53;101156.34;;;9.67;100.00
63808;BME280;49961;43.970;22.868;2023-11-21T01:57:55;101150.41;;;9.68;100.00
63808;BME280;49961;43.970;22.868;2023-11-21T01:58:57;101151.25;;;9.65;100.00
63808;BME280;49961;43.970;22.868;2023-11-21T01:59:58;101046.03;;;9.05;100.00
63808;BME280;49961;43.970;22.868;2023-11-21T02:01:01;101147.72;;;9.61;100.00
63808;BME280;49961;43.970;22.868;2023-11-21T02:02:02;101148.94;;;9.57;100.00
63808;BME280;49961;43.970;22.868;2023-11-21T02:03:02;101150.09;;;9.59;100.00
63808;BME280;49961;43.970;22.868;2023-11-21T02:04:04;101144.56;;;9.59;100.00
63808;BME280;49961;43.970;22.868;2023-11-21T02:05:05;101149.38;;;9.55;100.00
63808;BME280;49961;43.970;22.868;2023-11-21T02:06:05;101151.72;;;9.57;100.00
63808;BME280;49961;43.970;22.868;2023-11-21T02:07:06;101144.31;;;9.50;100.00
63808;BME280;49961;43.970;22.868;2023-11-21T02:08:06;101153.38;;;9.51;100.00
63808;BME280;49961;43.970;22.868;2023-11-21T02:09:09;101155.47;;;9.40;100.00
63808;BME280;49961;43.970;22.868;2023-11-21T02:10:11;101157.13;;;9.34;100.00
63808;BME280;49961;43.970;22.868;2023-11-21T02:11:15;101144.81;;;9.38;100.00
63808;BME280;49961;43.970;22.868;2023-11-21T02:12:16;101140.19;;;9.28;100.00
63808;BME280;49961;43.970;22.868;2023-11-21T02:13:16;101147.91;;;9.44;100.00
63808;BME280;49961;43.970;22.868;2023-11-21T02:14:17;101155.44;;;9.43;100.00
63808;BME280;49961;43.970;22.868;2023-11-21T02:15:20;101152.66;;;9.43;100.00
63808;BME280;49961;43.970;22.868;2023-11-21T02:16:21;101148.28;;;9.46;100.00
63808;BME280;49961;43.970;22.868;2023-11-21T02:17:21;101144.75;;;9.42;100.00
63808;BME280;49961;43.970;22.868;2023-11-21T02:18:22;101144.34;;;9.43;100.00
63808;BME280;49961;43.970;22.868;2023-11-21T02:19:22;101146.75;;;9.41;100.00
63808;BME280;49961;43.970;22.868;2023-11-21T02:20:25;101137.75;;;9.34;100.00
63808;BME280;49961;43.970;22.868;2023-11-21T02:21:27;101141.69;;;9.36;100.00
63808;BME280;49961;43.970;22.868;2023-11-21T02:22:30;101145.97;;;9.41;100.00
63808;BME280;49961;43.970;22.868;2023-11-21T02:23:33;101145.94;;;9.44;100.00
63808;BME280;49961;43.970;22.868;2023-11-21T02:24:33;101147.13;;;9.43;100.00
63808;BME280;49961;43.970;22.868;2023-11-21T02:25:34;101153.50;;;9.40;100.00
63808;BME280;49961;43.970;22.868;2023-11-21T02:26:35;101148.69;;;9.44;100.00
63808;BME280;49961;43.970;22.868;2023-11-21T02:27:36;101138.50;;;9.38;100.00
63808;BME280;49961;43.970;22.868;2023-11-21T02:28:37;101061.22;;;8.87;100.00
63808;BME280;49961;43.970;22.868;2023-11-21T02:29:39;101112.97;;;9.23;100.00
63808;BME280;49961;43.970;22.868;2023-11-21T02:30:39;101148.72;;;9.41;100.00
63808;BME280;49961;43.970;22.868;2023-11-21T02:31:40;101152.25;;;9.45;100.00
63808;BME280;49961;43.970;22.868;2023-11-21T02:32:48;101150.69;;;9.44;100.00
63808;BME280;49961;43.970;22.868;2023-11-21T02:33:49;101091.16;;;8.95;100.00
63808;BME280;49961;43.970;22.868;2023-11-21T02:34:49;101118.88;;;9.25;100.00
63808;BME280;49961;43.970;22.868;2023-11-21T02:35:50;101146.72;;;9.45;100.00
63808;BME280;49961;43.970;22.868;2023-11-21T02:36:54;101145.16;;;9.44;100.00
63808;BME280;49961;43.970;22.868;2023-11-21T02:37:55;101133.69;;;9.45;100.00
63808;BME280;49961;43.970;22.868;2023-11-21T02:38:56;101146.31;;;9.46;100.00
63808;BME280;49961;43.970;22.868;2023-11-21T02:39:56;101133.34;;;9.40;100.00
63808;BME280;49961;43.970;22.868;2023-11-21T02:40:57;101051.38;;;8.86;100.00
63808;BME280;49961;43.970;22.868;2023-11-21T02:41:59;101129.78;;;9.39;100.00
63808;BME280;49961;43.970;22.868;2023-11-21T02:42:59;101128.22;;;9.38;100.00
63808;BME280;49961;43.970;22.868;2023-11-21T02:44:00;101154.25;;;9.41;100.00
63808;BME280;49961;43.970;22.868;2023-11-21T02:45:01;101107.94;;;9.15;100.00
63808;BME280;49961;43.970;22.868;2023-11-21T02:46:01;101139.31;;;9.35;100.00
63808;BME280;49961;43.970;22.868;2023-11-21T02:47:02;101132.66;;;9.29;100.00
63808;BME280;49961;43.970;22.868;2023-11-21T02:48:02;101086.41;;;8.96;100.00
63808;BME280;49961;43.970;22.868;2023-11-21T02:49:04;101077.50;;;8.78;100.00
63808;BME280;49961;43.970;22.868;2023-11-21T02:50:06;101136.69;;;9.24;100.00
63808;BME280;49961;43.970;22.868;2023-11-21T02:51:10;101140.63;;;9.23;100.00
63808;BME280;49961;43.970;22.868;2023-11-21T02:52:10;101139.47;;;9.21;100.00
63808;BME280;49961;43.970;22.868;2023-11-21T02:53:11;101091.22;;;8.88;100.00
63808;BME280;49961;43.970;22.868;2023-11-21T02:54:11;101012.34;;;8.40;100.00
63808;BME280;49961;43.970;22.868;2023-11-21T02:55:12;101141.06;;;9.22;100.00
63808;BME280;49961;43.970;22.868;2023-11-21T02:56:12;101138.69;;;9.20;100.00
63808;BME280;49961;43.970;22.868;2023-11-21T02:57:13;101147.38;;;9.19;100.00
63808;BME280;49961;43.970;22.868;2023-11-21T02:58:13;101140.31;;;9.18;100.00
63808;BME280;49961;43.970;22.868;2023-11-21T02:59:15;101139.47;;;9.21;100.00
63808;BME280;49961;43.970;22.868;2023-11-21T03:00:16;101044.56;;;8.53;100.00
63808;BME280;49961;43.970;22.868;2023-11-21T03:01:17;101141.47;;;9.20;100.00
63808;BME280;49961;43.970;22.868;2023-11-21T03:02:17;101141.09;;;9.15;100.00
63808;BME280;49961;43.970;22.868;2023-11-21T03:03:18;101136.41;;;9.12;100.00
63808;BME280;49961;43.970;22.868;2023-11-21T03:04:18;101139.94;;;9.12;100.00
63808;BME280;49961;43.970;22.868;2023-11-21T03:05:19;101141.16;;;9.11;100.00
63808;BME280;49961;43.970;22.868;2023-11-21T03:06:20;101142.75;;;9.09;100.00
63808;BME280;49961;43.970;22.868;2023-11-21T03:07:21;101145.91;;;9.07;100.00
63808;BME280;49961;43.970;22.868;2023-11-21T03:08:21;101142.78;;;9.05;100.00
63808;BME280;49961;43.970;22.868;2023-11-21T03:09:22;100993.69;;;8.03;100.00
63808;BME280;49961;43.970;22.868;2023-11-21T03:10:22;101145.97;;;9.04;100.00
63808;BME280;49961;43.970;22.868;2023-11-21T03:11:23;101146.34;;;9.02;100.00
63808;BME280;49961;43.970;22.868;2023-11-21T03:12:23;101144.38;;;9.03;100.00
63808;BME280;49961;43.970;22.868;2023-11-21T03:13:24;101074.16;;;8.53;100.00
63808;BME280;49961;43.970;22.868;2023-11-21T03:14:24;101144.00;;;9.01;100.00
63808;BME280;49961;43.970;22.868;2023-11-21T03:15:25;101140.47;;;9.00;100.00
63808;BME280;49961;43.970;22.868;2023-11-21T03:16:25;101123.97;;;8.90;100.00
63808;BME280;49961;43.970;22.868;2023-11-21T03:17:26;101083.19;;;8.60;100.00
63808;BME280;49961;43.970;22.868;2023-11-21T03:18:26;101136.19;;;8.96;100.00
63808;BME280;49961;43.970;22.868;2023-11-21T03:19:29;101137.34;;;8.95;100.00
63808;BME280;49961;43.970;22.868;2023-11-21T03:20:29;101127.16;;;8.88;100.00
63808;BME280;49961;43.970;22.868;2023-11-21T03:21:30;101136.56;;;8.94;100.00
63808;BME280;49961;43.970;22.868;2023-11-21T03:22:30;101133.84;;;8.91;100.00
63808;BME280;49961;43.970;22.868;2023-11-21T03:23:31;101046.72;;;8.32;100.00
63808;BME280;49961;43.970;22.868;2023-11-21T03:24:32;101075.72;;;8.54;100.00
63808;BME280;49961;43.970;22.868;2023-11-21T03:25:32;101109.94;;;8.70;100.00
63808;BME280;49961;43.970;22.868;2023-11-21T03:26:33;101116.66;;;8.69;100.00
63808;BME280;49961;43.970;22.868;2023-11-21T03:27:34;101080.50;;;8.53;100.00
63808;BME280;49961;43.970;22.868;2023-11-21T03:28:34;101129.56;;;8.83;100.00
63808;BME280;49961;43.970;22.868;2023-11-21T03:29:34;101122.13;;;8.76;100.00
63808;BME280;49961;43.970;22.868;2023-11-21T03:30:35;101139.47;;;8.80;100.00
63808;BME280;49961;43.970;22.868;2023-11-21T03:31:35;101139.84;;;8.79;100.00
63808;BME280;49961;43.970;22.868;2023-11-21T03:32:36;101139.50;;;8.77;100.00
63808;BME280;49961;43.970;22.868;2023-11-21T03:33:37;101136.00;;;8.69;100.00
63808;BME280;49961;43.970;22.868;2023-11-21T03:34:53;101145.06;;;8.73;100.00
63808;BME280;49961;43.970;22.868;2023-11-21T03:35:54;101025.31;;;7.92;100.00
63808;BME280;49961;43.970;22.868;2023-11-21T03:36:54;101134.44;;;8.68;100.00
63808;BME280;49961;43.970;22.868;2023-11-21T03:37:55;101134.44;;;8.68;100.00
63808;BME280;49961;43.970;22.868;2023-11-21T03:38:56;101136.03;;;8.66;100.00
63808;BME280;49961;43.970;22.868;2023-11-21T03:39:56;100998.97;;;7.84;100.00
63808;BME280;49961;43.970;22.868;2023-11-21T03:40:57;101137.63;;;8.63;100.00
63808;BME280;49961;43.970;22.868;2023-11-21T03:41:57;101139.56;;;8.66;100.00
63808;BME280;49961;43.970;22.868;2023-11-21T03:42:58;101022.13;;;7.93;100.00
63808;BME280;49961;43.970;22.868;2023-11-21T03:43:58;101135.59;;;8.67;100.00
63808;BME280;49961;43.970;22.868;2023-11-21T03:44:59;101137.19;;;8.65;100.00
63808;BME280;49961;43.970;22.868;2023-11-21T03:45:59;101119.97;;;8.50;100.00
63808;BME280;49961;43.970;22.868;2023-11-21T03:47:00;101138.41;;;8.64;100.00
63808;BME280;49961;43.970;22.868;2023-11-21T03:48:00;101144.31;;;8.62;100.00
63808;BME280;49961;43.970;22.868;2023-11-21T03:49:01;101143.16;;;8.63;100.00
63808;BME280;49961;43.970;22.868;2023-11-21T03:50:02;101138.44;;;8.60;100.00
63808;BME280;49961;43.970;22.868;2023-11-21T03:51:03;101147.53;;;8.61;100.00
63808;BME280;49961;43.970;22.868;2023-11-21T03:52:05;101156.56;;;8.61;100.00
63808;BME280;49961;43.970;22.868;2023-11-21T03:53:05;101154.63;;;8.62;100.00
63808;BME280;49961;43.970;22.868;2023-11-21T03:54:06;101074.13;;;8.02;100.00
63808;BME280;49961;43.970;22.868;2023-11-21T03:55:07;101153.44;;;8.59;100.00
63808;BME280;49961;43.970;22.868;2023-11-21T03:56:07;101159.72;;;8.63;100.00
63808;BME280;49961;43.970;22.868;2023-11-21T03:57:08;101157.75;;;8.64;100.00
63808;BME280;49961;43.970;22.868;2023-11-21T03:58:09;101162.06;;;8.65;100.00
63808;BME280;49961;43.970;22.868;2023-11-21T03:59:09;101170.75;;;8.67;100.00
63808;BME280;49961;43.970;22.868;2023-11-21T04:00:10;101149.47;;;8.60;100.00
63808;BME280;49961;43.970;22.868;2023-11-21T04:01:11;101154.94;;;8.67;100.00
63808;BME280;49961;43.970;22.868;2023-11-21T04:02:11;101156.53;;;8.65;100.00
63808;BME280;49961;43.970;22.868;2023-11-21T04:03:12;101126.72;;;8.46;100.00
63808;BME280;49961;43.970;22.868;2023-11-21T04:04:13;101148.69;;;8.63;100.00
63808;BME280;49961;43.970;22.868;2023-11-21T04:05:14;101149.44;;;8.64;100.00
63808;BME280;49961;43.970;22.868;2023-11-21T04:06:15;101076.81;;;8.12;100.00
63808;BME280;49961;43.970;22.868;2023-11-21T04:07:15;101142.34;;;8.63;100.00
63808;BME280;49961;43.970;22.868;2023-11-21T04:08:15;101134.88;;;8.63;100.00
63808;BME280;49961;43.970;22.868;2023-11-21T04:09:16;101108.88;;;8.54;100.00
63808;BME280;49961;43.970;22.868;2023-11-21T04:10:17;101132.84;;;8.71;100.00
63808;BME280;49961;43.970;22.868;2023-11-21T04:11:18;101134.81;;;8.70;100.00
63808;BME280;49961;43.970;22.868;2023-11-21T04:12:18;101135.16;;;8.72;100.00
63808;BME280;49961;43.970;22.868;2023-11-21T04:13:19;101137.13;;;8.75;100.00
63808;BME280;49961;43.970;22.868;2023-11-21T04:14:20;101051.91;;;8.23;100.00
63808;BME280;49961;43.970;22.868;2023-11-21T04:15:20;101122.16;;;8.73;100.00
63808;BME280;49961;43.970;22.868;2023-11-21T04:16:21;101135.13;;;8.79;100.00
63808;BME280;49961;43.970;22.868;2023-11-21T04:17:21;101051.88;;;8.26;100.00
63808;BME280;49961;43.970;22.868;2023-11-21T04:18:22;101128.81;;;8.79;100.00
63808;BME280;49961;43.970;22.868;2023-11-21T04:19:22;100996.13;;;7.91;100.00
63808;BME280;49961;43.970;22.868;2023-11-21T04:20:23;101136.31;;;8.78;100.00
63808;BME280;49961;43.970;22.868;2023-11-21T04:21:23;101137.50;;;8.77;100.00
63808;BME280;49961;43.970;22.868;2023-11-21T04:22:24;101130.41;;;8.76;100.00
63808;BME280;49961;43.970;22.868;2023-11-21T04:23:24;101128.47;;;8.73;100.00
63808;BME280;49961;43.970;22.868;2023-11-21T04:24:25;101134.00;;;8.73;100.00
63808;BME280;49961;43.970;22.868;2023-11-21T04:25:26;101126.47;;;8.74;100.00
63808;BME280;49961;43.970;22.868;2023-11-21T04:26:27;101119.78;;;8.71;100.00
63808;BME280;49961;43.970;22.868;2023-11-21T04:27:27;101132.03;;;8.70;100.00
63808;BME280;49961;43.970;22.868;2023-11-21T04:28:28;101124.94;;;8.69;100.00
63808;BME280;49961;43.970;22.868;2023-11-21T04:29:29;101134.44;;;8.68;100.00
63808;BME280;49961;43.970;22.868;2023-11-21T04:30:30;101118.28;;;8.63;100.00
63808;BME280;49961;43.970;22.868;2023-11-21T04:31:31;101132.09;;;8.63;100.00
63808;BME280;49961;43.970;22.868;2023-11-21T04:32:33;101130.97;;;8.54;100.00
63808;BME280;49961;43.970;22.868;2023-11-21T04:33:33;101132.63;;;8.44;100.00
63808;BME280;49961;43.970;22.868;2023-11-21T04:34:34;101136.56;;;8.47;100.00
63808;BME280;49961;43.970;22.868;2023-11-21T04:35:34;101131.84;;;8.47;100.00
63808;BME280;49961;43.970;22.868;2023-11-21T04:36:35;101136.16;;;8.48;100.00
63808;BME280;49961;43.970;22.868;2023-11-21T04:37:35;101113.06;;;8.25;100.00
63808;BME280;49961;43.970;22.868;2023-11-21T04:38:36;101066.25;;;8.04;100.00
63808;BME280;49961;43.970;22.868;2023-11-21T04:39:36;101139.28;;;8.50;100.00
63808;BME280;49961;43.970;22.868;2023-11-21T04:40:37;101143.22;;;8.53;100.00
63808;BME280;49961;43.970;22.868;2023-11-21T04:41:37;101141.25;;;8.53;100.00
63808;BME280;49961;43.970;22.868;2023-11-21T04:42:39;101144.44;;;8.52;100.00
63808;BME280;49961;43.970;22.868;2023-11-21T04:43:40;101151.94;;;8.48;100.00
63808;BME280;49961;43.970;22.868;2023-11-21T04:44:40;101149.22;;;8.44;100.00
63808;BME280;49961;43.970;22.868;2023-11-21T04:45:41;101018.81;;;7.61;100.00
63808;BME280;49961;43.970;22.868;2023-11-21T04:46:41;101144.13;;;8.39;100.00
63808;BME280;49961;43.970;22.868;2023-11-21T04:47:42;101155.09;;;8.46;100.00
63808;BME280;49961;43.970;22.868;2023-11-21T04:48:43;101150.00;;;8.41;100.00
63808;BME280;49961;43.970;22.868;2023-11-21T04:49:45;101153.59;;;8.38;100.00
63808;BME280;49961;43.970;22.868;2023-11-21T04:50:47;101102.44;;;8.13;100.00
63808;BME280;49961;43.970;22.868;2023-11-21T04:51:47;101156.31;;;8.45;100.00
63808;BME280;49961;43.970;22.868;2023-11-21T04:52:48;101019.59;;;7.58;100.00
63808;BME280;49961;43.970;22.868;2023-11-21T04:53:48;101144.88;;;8.43;100.00
63808;BME280;49961;43.970;22.868;2023-11-21T04:54:49;101122.91;;;8.26;100.00
63808;BME280;49961;43.970;22.868;2023-11-21T04:55:49;101159.88;;;8.39;100.00
63808;BME280;49961;43.970;22.868;2023-11-21T04:56:50;100984.28;;;7.32;100.00
63808;BME280;49961;43.970;22.868;2023-11-21T04:57:50;101138.25;;;8.30;100.00
63808;BME280;49961;43.970;22.868;2023-11-21T04:58:51;101128.03;;;8.24;100.00
63808;BME280;49961;43.970;22.868;2023-11-21T04:59:51;101135.50;;;8.27;100.00
63808;BME280;49961;43.970;22.868;2023-11-21T05:00:51;101058.50;;;7.78;100.00
63808;BME280;49961;43.970;22.868;2023-11-21T05:01:53;101019.25;;;7.49;100.00
63808;BME280;49961;43.970;22.868;2023-11-21T05:02:54;101143.81;;;8.27;100.00
63808;BME280;49961;43.970;22.868;2023-11-21T05:03:54;101147.34;;;8.24;100.00
63808;BME280;49961;43.970;22.868;2023-11-21T05:04:55;101143.03;;;8.19;100.00
63808;BME280;49961;43.970;22.868;2023-11-21T05:05:57;101142.66;;;8.17;100.00
63808;BME280;49961;43.970;22.868;2023-11-21T05:06:57;101148.97;;;8.14;100.00
63808;BME280;49961;43.970;22.868;2023-11-21T05:07:58;101140.34;;;8.09;100.00
63808;BME280;49961;43.970;22.868;2023-11-21T05:08:58;101139.59;;;8.01;100.00
63808;BME280;49961;43.970;22.868;2023-11-21T05:09:59;101146.31;;;7.97;100.00
63808;BME280;49961;43.970;22.868;2023-11-21T05:10:59;101153.00;;;7.96;100.00
63808;BME280;49961;43.970;22.868;2023-11-21T05:11:59;101094.03;;;7.62;100.00
63808;BME280;49961;43.970;22.868;2023-11-21T05:13:00;101159.31;;;7.93;100.00
63808;BME280;49961;43.970;22.868;2023-11-21T05:14:00;101157.75;;;7.92;100.00
63808;BME280;49961;43.970;22.868;2023-11-21T05:15:02;101162.88;;;7.93;100.00